Rossland, Canada
Current Conditions -  °F | °C
As of 11:00 AM on Friday 24 Oct 2014 (Local Time) from CYCG Reporting Station
Broken Clouds Broken Clouds  
Wind Chill: 45°   Ceiling: 14000
Heat Index: 45°   Visibility: 15mi
Dew Point: 41°   Wind: 2mph
Humidity: 87%   Direction: 230°SW
Pressure: 30.13"   Gusts: NA
Location:  49.08°N, 117.8°W
Report Text: CYCG 241800Z 23002KT 15SM FEW010 FEW065 SCT100 BKN140 BKN270 07/05 A3013 RMK SF1SC1AC2AC2CI1 SLP212
Loading
Personal Weather Stations






























Interactive Weather Map
Tropical Storm Tracking
New forecast layout! Learn more

10-Day Weather Forecast

Advertisements
Track Severe Weather on mobile